.
WxDataArchive / Data Records for 2013-07-02
2013-07-01 July 2013 2013-07-03

Data Records for Tuesday, 02 July 2013

Time	Temp	Chill	HIndex	Humid	Dewpt	 Wind 	HiWind	WindDir	Rain 	Barom 
-----	----	-----	------	-----	-----	------	------	-------	-----	----- 
00:00	63.4	63.4	63.4	77	56.1	1	5	112	0.00	29.984 
00:05	63.4	63.4	63.4	77	56.1	1	5	112	0.00	29.984 
00:10	63.2	63.2	63.2	77	55.9	1	5	112	0.00	29.984 
00:15	63.2	63.2	63.2	76	55.5	2	6	90	0.00	29.993 
00:20	63.2	63.2	63.2	76	55.5	1	4	90	0.00	29.993 
00:25	63.2	63.2	63.2	75	55.1	2	5	68	0.00	29.993 
00:30	63.2	63.2	63.2	75	55.1	1	6	90	0.00	29.997 
00:35	63.2	63.2	63.2	75	55.1	1	5	68	0.00	29.997 
00:40	63.2	63.2	63.2	75	55.1	1	6	90	0.00	29.997 
00:45	63.1	63.1	63.1	75	55.0	1	3	90	0.00	29.995 
00:50	63.1	63.1	63.1	76	55.4	0	3	90	0.00	29.995 
00:55	63.1	63.1	63.1	77	55.8	1	3	90	0.00	29.995 
01:00	62.9	62.9	62.9	77	55.6	1	4	90	0.00	29.990 
01:05	62.9	62.9	62.9	77	55.6	1	5	90	0.00	29.990 
01:10	62.7	62.7	62.7	78	55.7	1	5	90	0.00	29.990 
01:15	62.6	62.6	62.6	78	55.6	1	4	90	0.00	29.992 
01:20	62.4	62.4	62.4	78	55.4	1	4	90	0.00	29.992 
01:25	62.4	62.4	62.4	80	56.1	0	3	90	0.00	29.992 
01:30	62.3	62.3	62.3	80	56.0	1	3	90	0.00	29.989 
01:35	62.1	62.1	62.1	80	55.9	0	2	90	0.00	29.989 
01:40	62.1	62.1	62.1	81	56.2	0	2	90	0.00	29.989 
01:45	62.1	62.1	62.1	80	55.9	0	4	90	0.00	29.989 
01:50	62.1	62.1	62.1	80	55.9	0	2	90	0.00	29.989 
01:55	62.3	62.3	62.3	81	56.4	0	1	90	0.00	29.989 
02:00	62.3	62.3	62.3	81	56.4	0	3	90	0.00	29.990 
02:05	62.3	62.3	62.3	80	56.0	1	4	90	0.00	29.990 
02:10	62.3	62.3	62.3	80	56.0	0	3	90	0.00	29.990 
02:15	62.4	62.4	62.4	80	56.1	0	3	90	0.00	29.986 
02:20	62.4	62.4	62.4	80	56.1	0	2	90	0.00	29.986 
02:25	62.4	62.4	62.4	80	56.1	0	3	90	0.00	29.986 
02:30	62.6	62.6	62.6	80	56.3	0	2	90	0.00	29.985 
02:35	62.6	62.6	62.6	80	56.3	0	2	90	0.00	29.985 
02:40	62.6	62.6	62.6	80	56.3	0	2	90	0.00	29.985 
02:45	62.7	62.7	62.7	79	56.1	1	4	90	0.00	29.982 
02:50	62.7	62.7	62.7	79	56.1	1	5	90	0.00	29.982 
02:55	62.9	62.9	62.9	79	56.3	1	6	90	0.00	29.982 
03:00	62.9	62.9	62.9	80	56.6	1	5	90	0.00	29.980 
03:05	62.7	62.7	62.7	81	56.8	1	3	135	0.00	29.980 
03:10	62.6	62.6	62.6	82	57.0	0	3	135	0.00	29.980 
03:15	62.4	62.4	62.4	83	57.2	0	2	135	0.00	29.977 
03:20	62.3	62.3	62.3	84	57.4	1	3	135	0.00	29.977 
03:25	62.0	62.0	62.0	85	57.4	0	2	135	0.00	29.977 
03:30	61.8	61.8	61.8	85	57.2	1	5	135	0.00	29.968 
03:35	61.8	61.8	61.8	86	57.6	1	3	135	0.01	29.968 
03:40	61.6	61.6	61.6	86	57.4	0	2	135	0.00	29.968 
03:45	61.5	61.5	61.5	87	57.6	0	2	135	0.01	29.969 
03:50	61.3	61.3	61.3	87	57.4	1	4	135	0.00	29.969 
03:55	61.2	61.2	61.2	88	57.6	0	2	135	0.00	29.969 
04:00	61.0	61.0	61.0	88	57.4	0	2	135	0.00	29.973 
04:05	60.9	60.9	60.9	89	57.6	0	2	135	0.00	29.973 
04:10	60.9	60.9	60.9	89	57.6	0	1	135	0.00	29.973 
04:15	60.7	60.7	60.7	89	57.4	0	1	135	0.00	29.977 
04:20	60.7	60.7	60.7	90	57.7	0	1	135	0.01	29.977 
04:25	60.7	60.7	60.7	90	57.7	0	1	135	0.13	29.977 
04:30	60.5	60.5	60.5	91	57.9	0	2	135	0.03	29.969 
04:35	60.4	60.4	60.4	91	57.8	1	4	135	0.01	29.969 
04:40	60.4	60.4	60.4	92	58.1	0	3	135	0.01	29.969 
04:45	60.2	60.2	60.2	92	57.9	0	3	112	0.01	29.971 
04:50	60.2	60.2	60.2	92	57.9	0	3	112	0.00	29.971 
04:55	60.2	60.2	60.2	92	57.9	0	3	112	0.00	29.971 
05:00	60.2	60.2	60.2	92	57.9	0	2	112	0.00	29.970 
05:05	60.2	60.2	60.2	92	57.9	0	3	112	0.00	29.970 
05:10	60.2	60.2	60.2	93	58.2	0	3	270	0.00	29.970 
05:15	60.1	60.1	60.1	93	58.1	0	2	270	0.00	29.973 
05:20	60.1	60.1	60.1	93	58.1	0	3	248	0.00	29.973 
05:25	59.9	59.9	59.9	93	57.9	0	1	158	0.00	29.973 
05:30	59.9	59.9	59.9	93	57.9	0	4	135	0.00	29.966 
05:35	59.8	59.8	59.8	93	57.8	1	5	112	0.00	29.966 
05:40	59.8	59.8	59.8	93	57.8	0	3	90	0.00	29.966 
05:45	59.8	59.8	59.8	93	57.8	1	3	112	0.00	29.971 
05:50	59.8	59.8	59.8	93	57.8	1	2	135	0.00	29.971 
05:55	59.8	59.8	59.8	93	57.8	0	2	0	0.00	29.971 
06:00	59.8	59.8	59.8	93	57.8	1	3	22	0.00	29.977 
06:05	59.8	59.8	59.8	93	57.8	0	2	22	0.00	29.977 
06:10	59.8	59.8	59.8	93	57.8	0	3	22	0.00	29.977 
06:15	59.8	59.8	59.8	94	58.1	0	2	22	0.00	29.977 
06:20	59.8	59.8	59.8	94	58.1	0	2	22	0.00	29.977 
06:25	59.8	59.8	59.8	94	58.1	0	5	135	0.00	29.977 
06:30	59.8	59.8	59.8	94	58.1	0	2	135	0.00	29.971 
06:35	59.8	59.8	59.8	94	58.1	0	3	135	0.00	29.971 
06:40	59.9	59.9	59.9	94	58.2	0	0	---	0.00	29.971 
06:45	59.9	59.9	59.9	94	58.2	0	1	0	0.00	29.974 
06:50	59.9	59.9	59.9	94	58.2	0	1	0	0.00	29.974 
06:55	59.9	59.9	59.9	94	58.2	0	1	0	0.00	29.974 
07:00	59.9	59.9	59.9	94	58.2	0	4	158	0.00	29.978 
07:05	60.1	60.1	60.1	94	58.4	0	0	---	0.00	29.978 
07:10	60.1	60.1	60.1	94	58.4	0	3	112	0.00	29.978 
07:15	60.1	60.1	60.1	94	58.4	0	1	112	0.00	29.981 
07:20	60.2	60.2	60.2	94	58.5	0	1	112	0.00	29.981 
07:25	60.2	60.2	60.2	94	58.5	0	1	112	0.00	29.981 
07:30	60.2	60.2	60.2	94	58.5	0	0	---	0.00	29.983 
07:35	60.2	60.2	60.2	94	58.5	0	0	---	0.00	29.983 
07:40	60.2	60.2	60.2	94	58.5	0	1	112	0.00	29.983 
07:45	60.4	60.4	60.4	94	58.7	0	0	---	0.00	29.989 
07:50	60.4	60.4	60.4	94	58.7	0	0	---	0.00	29.989 
07:55	60.5	60.5	60.5	94	58.8	0	1	112	0.00	29.989 
08:00	60.5	60.5	60.5	94	58.8	0	2	112	0.00	29.994 
08:05	60.5	60.5	60.5	94	58.8	0	2	112	0.00	29.994 
08:10	60.5	60.5	60.5	94	58.8	0	1	112	0.00	29.994 
08:15	60.5	60.5	60.5	94	58.8	0	0	---	0.01	29.998 
08:20	60.5	60.5	60.5	94	58.8	0	0	---	0.00	29.998 
08:25	60.7	60.7	60.7	94	59.0	0	1	112	0.01	29.998 
08:30	60.7	60.7	60.7	94	59.0	0	2	112	0.02	29.998 
08:35	60.7	60.7	60.7	94	59.0	0	1	112	0.02	29.998 
08:40	60.7	60.7	60.7	94	59.0	0	1	112	0.01	29.998 
08:45	60.7	60.7	60.7	94	59.0	0	1	112	0.07	29.998 
08:50	60.7	60.7	60.7	94	59.0	0	1	112	0.02	29.998 
08:55	60.9	60.9	60.9	94	59.2	0	1	112	0.00	29.998 
09:00	60.9	60.9	60.9	95	59.5	0	0	---	0.00	29.997 
09:05	61.0	61.0	61.0	95	59.6	0	1	112	0.00	29.997 
09:10	61.0	61.0	61.0	95	59.6	0	2	112	0.00	29.997 
09:15	61.2	61.2	61.2	95	59.8	0	1	112	0.00	30.001 
09:20	61.2	61.2	61.2	95	59.8	0	2	112	0.00	30.001 
09:25	61.2	61.2	61.2	95	59.8	0	2	112	0.00	30.001 
09:30	61.3	61.3	61.3	95	59.9	0	1	112	0.00	30.000 
09:35	61.5	61.5	61.5	95	60.1	0	2	112	0.00	30.000 
09:40	61.6	61.6	61.6	95	60.2	0	1	112	0.00	30.000 
09:45	61.8	61.8	61.8	95	60.3	0	1	112	0.00	29.998 
09:50	62.0	62.0	62.0	95	60.5	0	3	112	0.00	29.998 
09:55	62.0	62.0	62.0	95	60.5	0	2	112	0.00	29.998 
10:00	62.1	62.1	62.1	95	60.6	0	1	112	0.00	30.002 
10:05	62.1	62.1	62.1	95	60.6	1	4	112	0.00	30.002 
10:10	62.3	62.3	62.3	95	60.8	2	5	112	0.00	30.002 
10:15	62.4	62.4	62.4	95	60.9	1	3	112	0.00	30.003 
10:20	62.4	62.4	62.4	95	60.9	1	3	112	0.00	30.003 
10:25	62.4	62.4	62.4	95	60.9	1	3	112	0.00	30.003 
10:30	62.3	62.3	62.3	95	60.8	1	5	112	0.00	30.008 
10:35	62.3	62.3	62.3	95	60.8	1	4	112	0.00	30.008 
10:40	62.4	62.4	62.4	95	60.9	1	5	90	0.00	30.008 
10:45	62.4	62.4	62.4	95	60.9	1	5	90	0.00	30.009 
10:50	62.4	62.4	62.4	95	60.9	2	6	112	0.00	30.009 
10:55	62.6	62.6	62.6	95	61.1	1	6	112	0.00	30.009 
11:00	62.6	62.6	62.6	96	61.4	1	4	112	0.00	30.010 
11:05	62.7	62.7	62.7	96	61.5	1	3	112	0.00	30.010 
11:10	62.7	62.7	62.7	96	61.5	1	5	112	0.00	30.010 
11:15	62.9	62.9	62.9	96	61.7	1	5	112	0.00	30.012 
11:20	63.1	63.1	63.1	96	61.9	0	2	112	0.00	30.012 
11:25	63.4	63.4	63.4	96	62.2	1	4	112	0.00	30.012 
11:30	63.4	63.4	63.4	96	62.2	1	5	112	0.00	30.012 
11:35	63.4	63.4	63.4	96	62.2	1	4	112	0.00	30.012 
11:40	63.4	63.4	63.4	96	62.2	2	7	90	0.00	30.012 
11:45	63.5	63.5	63.5	96	62.3	1	3	68	0.00	30.012 
11:50	63.7	63.7	63.7	96	62.5	1	4	68	0.00	30.012 
11:55	63.7	63.7	63.7	96	62.5	2	6	68	0.00	30.012 
12:00	63.7	63.7	63.7	96	62.5	1	4	90	0.00	30.013 
12:05	63.9	63.9	63.9	96	62.7	1	3	90	0.00	30.013 
12:10	63.9	63.9	63.9	96	62.7	1	3	90	0.00	30.013 
12:15	64.0	64.0	64.0	96	62.8	2	5	90	0.00	30.012 
12:20	64.0	64.0	64.0	96	62.8	2	5	45	0.00	30.012 
12:25	64.2	64.2	64.2	96	63.0	2	5	112	0.00	30.012 
12:30	64.3	64.3	64.3	96	63.1	1	5	90	0.00	30.012 
12:35	64.5	64.5	64.5	96	63.3	1	3	90	0.00	30.012 
12:40	64.8	64.8	64.8	96	63.6	1	4	90	0.00	30.012 
12:45	64.7	64.7	64.7	95	63.2	2	6	90	0.00	30.008 
12:50	65.0	65.0	65.0	95	63.5	1	4	112	0.00	30.008 
12:55	65.0	65.0	65.0	95	63.5	1	4	112	0.00	30.008 
13:00	65.0	65.0	65.0	95	63.5	2	5	90	0.00	30.008 
13:05	65.2	65.2	65.2	95	63.7	1	5	90	0.00	30.008 
13:10	65.2	65.2	65.2	95	63.7	2	6	90	0.00	30.008 
13:15	65.3	65.3	65.3	95	63.8	1	4	90	0.00	30.012 
13:20	65.5	65.5	65.5	94	63.7	2	6	90	0.00	30.012 
13:25	65.5	65.5	65.5	94	63.7	2	5	90	0.00	30.012 
13:30	65.8	65.8	65.8	94	64.0	1	6	90	0.00	30.010 
13:35	66.0	66.0	66.0	94	64.2	1	4	135	0.00	30.010 
13:40	66.0	66.0	66.0	94	64.2	2	4	90	0.00	30.010 
13:45	66.1	66.1	66.1	93	64.0	2	5	112	0.00	30.010 
13:50	66.3	66.3	66.3	93	64.2	2	5	90	0.00	30.010 
13:55	66.6	66.6	66.6	93	64.5	1	4	90	0.00	30.010 
14:00	66.8	66.8	66.8	93	64.7	0	3	90	0.00	30.005 
14:05	66.9	66.9	66.9	93	64.8	0	2	90	0.00	30.005 
14:10	67.1	67.1	67.1	93	65.0	1	4	90	0.00	30.005 
14:15	67.1	67.1	67.1	92	64.7	3	7	112	0.00	29.999 
14:20	67.3	67.3	67.3	92	64.9	2	6	90	0.00	29.999 
14:25	67.3	67.3	67.3	91	64.6	2	6	90	0.00	29.999 
14:30	67.4	67.4	67.4	91	64.7	3	5	90	0.00	29.998 
14:35	67.9	67.9	67.9	92	65.5	1	5	90	0.00	29.998 
14:40	68.4	68.4	68.4	90	65.3	2	6	90	0.00	29.998 
14:45	68.4	68.4	68.4	90	65.3	2	5	90	0.00	29.995 
14:50	68.3	68.3	68.3	89	64.9	2	6	90	0.00	29.995 
14:55	68.4	68.4	68.4	89	65.0	1	5	90	0.00	29.995 
15:00	68.4	68.4	68.4	88	64.7	2	6	90	0.00	29.996 
15:05	68.4	68.4	68.4	88	64.7	3	7	90	0.00	29.996 
15:10	68.6	68.6	68.6	89	65.2	1	6	90	0.00	29.996 
15:15	68.8	68.8	68.8	89	65.4	1	6	90	0.00	29.996 
15:20	69.3	69.3	69.3	89	65.9	1	4	90	0.00	29.996 
15:25	69.6	69.6	69.6	87	65.6	2	6	90	0.00	29.996 
15:30	69.6	69.6	69.6	87	65.6	2	6	90	0.00	29.996 
15:35	70.1	70.1	70.1	88	66.4	2	5	112	0.00	29.996 
15:40	70.3	70.3	70.3	87	66.2	1	4	90	0.00	29.996 
15:45	70.4	70.4	70.4	86	66.0	2	6	112	0.00	29.993 
15:50	70.4	70.4	70.4	85	65.7	1	4	112	0.00	29.993 
15:55	70.6	70.6	70.6	85	65.9	1	4	112	0.00	29.993 
16:00	70.8	70.8	70.8	85	66.1	1	4	112	0.00	29.987 
16:05	71.1	71.1	71.1	85	66.4	1	5	112	0.00	29.987 
16:10	71.5	71.5	71.5	84	66.4	1	4	112	0.00	29.987 
16:15	71.6	71.6	71.6	84	66.5	1	4	90	0.00	29.983 
16:20	71.6	71.6	71.6	82	65.8	1	4	135	0.00	29.983 
16:25	71.5	71.5	71.5	82	65.7	1	4	135	0.00	29.983 
16:30	71.3	71.3	71.3	83	65.9	2	5	112	0.00	29.984 
16:35	71.3	71.3	71.3	83	65.9	2	5	90	0.00	29.984 
16:40	71.1	71.1	71.1	83	65.7	2	7	112	0.00	29.984 
16:45	70.9	70.9	70.9	84	65.8	2	5	112	0.00	29.980 
16:50	71.1	71.1	71.1	83	65.7	2	6	112	0.00	29.980 
16:55	71.3	71.3	71.3	82	65.5	3	5	112	0.00	29.980 
17:00	71.6	71.6	71.6	83	66.2	2	5	112	0.00	29.976 
17:05	71.8	71.8	71.8	81	65.6	1	3	90	0.00	29.976 
17:10	72.0	72.0	72.0	82	66.2	1	3	135	0.00	29.976 
17:15	71.8	71.8	71.8	81	65.6	1	3	270	0.00	29.978 
17:20	71.6	71.6	71.6	82	65.8	1	3	225	0.00	29.978 
17:25	71.6	71.6	71.6	83	66.2	1	3	112	0.00	29.978 
17:30	71.8	71.8	71.8	82	66.0	1	4	112	0.00	29.974 
17:35	72.0	72.0	72.0	82	66.2	1	4	112	0.00	29.974 
17:40	72.1	72.1	72.1	81	65.9	1	5	248	0.00	29.974 
17:45	72.0	72.0	72.0	80	65.5	2	6	112	0.00	29.972 
17:50	72.0	72.0	72.0	81	65.8	1	3	68	0.00	29.972 
17:55	72.5	72.5	72.5	81	66.3	1	5	68	0.00	29.972 
18:00	72.7	72.7	72.7	79	65.8	1	4	68	0.00	29.968 
18:05	72.8	72.8	72.8	80	66.3	2	6	112	0.00	29.968 
18:10	72.7	72.7	72.7	79	65.8	2	5	112	0.00	29.968 
18:15	72.1	72.1	72.1	80	65.6	2	4	112	0.00	29.969 
18:20	71.8	71.8	71.8	81	65.6	0	3	112	0.00	29.969 
18:25	71.6	71.6	71.6	81	65.4	1	3	112	0.00	29.969 
18:30	71.8	71.8	71.8	80	65.3	2	5	112	0.00	29.970 
18:35	72.0	72.0	72.0	80	65.5	2	6	135	0.00	29.970 
18:40	72.0	72.0	72.0	80	65.5	3	7	112	0.00	29.970 
18:45	72.0	72.0	72.0	80	65.5	1	4	135	0.00	29.976 
18:50	71.8	71.8	71.8	81	65.6	2	5	135	0.00	29.976 
18:55	71.3	71.3	71.3	81	65.2	3	10	112	0.00	29.976 
19:00	70.8	70.8	70.8	82	65.0	3	9	90	0.00	29.989 
19:05	70.4	70.4	70.4	82	64.6	3	7	112	0.00	29.989 
19:10	70.1	70.1	70.1	83	64.7	1	2	112	0.00	29.989 
19:15	70.1	70.1	70.1	83	64.7	1	3	90	0.00	29.989 
19:20	69.9	69.9	69.9	83	64.5	1	3	90	0.00	29.989 
19:25	69.9	69.9	69.9	83	64.5	2	5	90	0.00	29.989 
19:30	69.9	69.9	69.9	84	64.8	2	4	112	0.00	29.996 
19:35	69.9	69.9	69.9	84	64.8	1	3	112	0.00	29.996 
19:40	69.9	69.9	69.9	84	64.8	2	4	112	0.00	29.996 
19:45	69.8	69.8	69.8	84	64.7	0	3	112	0.00	29.993 
19:50	69.8	69.8	69.8	84	64.7	0	0	---	0.00	29.993 
19:55	69.6	69.6	69.6	84	64.5	0	2	112	0.00	29.993 
20:00	69.6	69.6	69.6	84	64.5	0	2	112	0.00	29.998 
20:05	69.6	69.6	69.6	84	64.5	0	2	112	0.00	29.998 
20:10	69.6	69.6	69.6	84	64.5	1	4	112	0.00	29.998 
20:15	69.6	69.6	69.6	84	64.5	1	3	112	0.00	29.991 
20:20	69.4	69.4	69.4	84	64.3	1	5	112	0.00	29.991 
20:25	69.4	69.4	69.4	84	64.3	1	3	112	0.00	29.991 
20:30	69.4	69.4	69.4	84	64.3	1	4	112	0.00	29.990 
20:35	69.4	69.4	69.4	85	64.7	1	4	112	0.00	29.990 
20:40	69.4	69.4	69.4	85	64.7	2	5	112	0.00	29.990 
20:45	69.3	69.3	69.3	85	64.6	1	4	90	0.00	29.981 
20:50	69.1	69.1	69.1	85	64.4	1	4	112	0.00	29.981 
20:55	69.1	69.1	69.1	86	64.7	0	2	112	0.00	29.981 
21:00	68.9	68.9	68.9	86	64.5	0	3	112	0.00	29.988 
21:05	68.8	68.8	68.8	87	64.8	1	2	112	0.00	29.988 
21:10	68.6	68.6	68.6	87	64.6	1	4	112	0.00	29.988 
21:15	68.4	68.4	68.4	88	64.7	0	2	112	0.00	29.983 
21:20	68.3	68.3	68.3	88	64.6	1	5	112	0.00	29.983 
21:25	68.1	68.1	68.1	88	64.4	2	4	90	0.00	29.983 
21:30	68.1	68.1	68.1	89	64.7	1	3	90	0.00	29.990 
21:35	67.9	67.9	67.9	89	64.5	0	3	90	0.00	29.990 
21:40	67.8	67.8	67.8	89	64.4	1	3	90	0.00	29.990 
21:45	67.8	67.8	67.8	89	64.4	0	1	90	0.00	29.995 
21:50	67.6	67.6	67.6	90	64.6	0	3	90	0.00	29.995 
21:55	67.6	67.6	67.6	90	64.6	1	3	90	0.00	29.995 
22:00	67.4	67.4	67.4	90	64.4	1	4	90	0.00	29.999 
22:05	67.4	67.4	67.4	90	64.4	2	4	90	0.00	29.999 
22:10	67.3	67.3	67.3	90	64.3	2	6	90	0.00	29.999 
22:15	67.3	67.3	67.3	90	64.3	1	4	90	0.00	30.011 
22:20	67.1	67.1	67.1	90	64.1	1	4	90	0.00	30.011 
22:25	67.1	67.1	67.1	90	64.1	2	5	90	0.00	30.011 
22:30	67.1	67.1	67.1	90	64.1	3	7	90	0.00	30.010 
22:35	66.9	66.9	66.9	90	63.9	2	6	90	0.00	30.010 
22:40	66.9	66.9	66.9	90	63.9	1	5	90	0.00	30.010 
22:45	66.9	66.9	66.9	91	64.2	1	5	90	0.00	30.024 
22:50	66.9	66.9	66.9	91	64.2	1	4	90	0.00	30.024 
22:55	66.9	66.9	66.9	91	64.2	1	6	112	0.00	30.024 
23:00	66.9	66.9	66.9	91	64.2	1	3	112	0.00	30.025 
23:05	66.8	66.8	66.8	91	64.1	1	4	112	0.00	30.025 
23:10	66.8	66.8	66.8	91	64.1	2	4	112	0.00	30.025 
23:15	66.6	66.6	66.6	91	63.9	1	4	112	0.00	30.018 
23:20	66.6	66.6	66.6	91	63.9	1	4	112	0.00	30.018 
23:25	66.4	66.4	66.4	91	63.7	1	4	112	0.00	30.018 
23:30	66.4	66.4	66.4	91	63.7	1	4	112	0.00	30.021 
23:35	66.3	66.3	66.3	91	63.6	2	6	112	0.00	30.021 
23:40	66.3	66.3	66.3	91	63.6	2	5	112	0.00	30.021 
23:45	66.1	66.1	66.1	91	63.4	3	7	112	0.00	30.022 
23:50	66.1	66.1	66.1	91	63.4	1	4	90	0.00	30.022 
23:55	66.1	66.1	66.1	91	63.4	2	6	90	0.00	30.022 

CoCoRaHS
IN-AL-39
A2 Web Hosting
Creative Commons License
GoDaddy
search engine by freefind advanced

loaded 2018-11-14 03:50:42 • last modified 2010-11-18 10:43:29
Privacy PolicyDisclaimer
• wx.awcolley.com is powered by PmWiki v.2002016 •
• all content (unless otherwise noted) © 2018 A W Colley